Airfield :







YOU CAN JOIN US ON...

 
LOGIN :

Register | Disclaimer

   EN    FR    IT 

 









Legend :    VFR   Marginal VFR   IFR   Intensive IFR   Very Intensive IFR
Visi :
Ceiling :
>= 8 km
>= 3000ft
5 to 8 km
1000 to 3000 ft
1500m to 5 km
500 to 1000 ft
800 to 1500m
200 to 500 ft
< 800m
< 200 ft
Symbols :   Thunderstorms  Fog  Heavy snow  Heavy precipitations  Wind > 20 kt







- Airport Elevation : 68 ft
- IATA code : YFC


CYFC - Fredericton

CURRENT METAR :
  • 171824Z AUTO 19008KT 3SM RA BKN035 OVC055 22/ A2977 RMK TD MISG SLP083 DENSITY ALT 1000FT

EXPIRED METARs :
  • 171812Z AUTO 18010KT 2 1/2SM R09/3500V6000FT/ +RA BKN035 BKN044 22/ A2977 RMK TD MISG SLP082 DENSITY ALT 1000FT
  • 171759Z AUTO 20011KT 3SM RA BR BKN037 BKN049 OVC065 22/ A2978 RMK PCPN 4.0MM PAST HR SLP085 DENSITY ALT 1000FT
  • 171714Z AUTO 19009G15KT 9SM -RA FEW045 OVC072 23/22 A2977 RMK SLP083 DENSITY ALT 1100FT
  • 171657Z AUTO 19009KT 9SM -RA OVC070 24/22 A2977 RMK SLP084 DENSITY ALT 1200FT
  • 171642Z AUTO 19007KT 9SM BKN070 OVC084 24/22 A2977 RMK SLP084 DENSITY ALT 1200FT
  • 171607Z AUTO 21007KT 9SM -RA FEW048 OVC088 25/22 A2978 RMK SLP085 DENSITY ALT 1300FT

TAF TAF CYFC
Valid from the 17 at 18:00 until the 18 at 06:00 UTC


171738Z 1718/1806 21010KT P6SM FEW040 OVC070
TEMPO 1718/1801 4SM -SHRA BR OVC040
PROB30 1720/1801 VRB15G25KT 2SM TSRA BR BKN015 OVC030CB
FM180100 25008KT P6SM SCT050
FM180300 31007KT P6SM SKC RMK FCST BASED ON AUTO OBS. NXT FCST BY 180000Z
CZQM FIR / North America



MET'MAP, your aeronautical weather chart ! - Copyright ORBIFLY December 2007 - Disclaimer

ORBIFLY MET'MAP TEAM :

Programming & Development : Alexandra Zaïnal
Concept & Development : Baudouin d'Aumeries
Co-Development & Prog : Marc-Olivier Méhu
Technical & hardware support : Manuel Goepfert

Contact : metmap@orbifly.com




SOURCES & CREDITS :

   NOAA